Time;durP1;ratioP1;P1;durP2;ratioP2;P2;SDS_P1;SDS_P2;PMS_P1;PMS_P2;Temp;Humidity;BMP_temperature;BMP_pressure;BME280_temperature;BME280_humidity;BME280_pressure;Samples;Min_cycle;Max_cycle;Signal;HPM_P1;HPM_P2
2021/12/23 00:00:56;;;;;;;16.23;10.00;;;-1.00;99.90;;;;;;5086668;28;20044;-71
2021/12/23 00:03:22;;;;;;;16.25;10.45;;;-0.90;99.90;;;;;;5087145;28;20048;-72
2021/12/23 00:05:48;;;;;;;14.60;9.40;;;-1.00;99.90;;;;;;5085998;28;20526;-71
2021/12/23 00:08:14;;;;;;;22.52;11.13;;;-1.00;99.90;;;;;;5086571;28;20051;-73
2021/12/23 00:10:40;;;;;;;18.00;11.27;;;-1.00;99.90;;;;;;5087992;28;20044;-71
2021/12/23 00:13:07;;;;;;;16.45;8.95;;;-1.00;99.90;;;;;;5084564;28;20055;-72
2021/12/23 00:18:05;;;;;;;18.30;11.48;;;-1.00;99.90;;;;;;5087612;28;20499;-70
2021/12/23 00:25:45;;;;;;;20.00;11.40;;;-0.90;99.90;;;;;;5084463;28;20044;-71
2021/12/23 00:28:11;;;;;;;15.60;9.77;;;-0.80;99.90;;;;;;5091849;28;20437;-73
2021/12/23 00:30:37;;;;;;;15.85;10.20;;;-0.90;99.90;;;;;;5093111;28;20036;-71
2021/12/23 00:33:02;;;;;;;17.98;10.98;;;-0.90;99.90;;;;;;5092318;28;20040;-73
2021/12/23 00:35:28;;;;;;;18.50;10.23;;;-0.80;99.90;;;;;;5091483;28;20158;-72
2021/12/23 00:38:01;;;;;;;19.52;11.85;;;-0.90;99.90;;;;;;5071279;28;20044;-74
2021/12/23 00:40:28;;;;;;;22.80;12.10;;;-0.90;99.90;;;;;;5091410;28;20523;-71
2021/12/23 00:42:53;;;;;;;19.30;10.73;;;-0.90;99.90;;;;;;5092288;28;20171;-73
2021/12/23 00:45:20;;;;;;;17.88;10.18;;;-0.90;99.90;;;;;;5087262;28;20044;-73
2021/12/23 00:47:46;;;;;;;14.15;8.50;;;-0.90;99.90;;;;;;5090191;28;20708;-72
2021/12/23 00:50:12;;;;;;;18.10;10.57;;;-0.90;99.90;;;;;;5091207;28;20054;-74
2021/12/23 00:52:40;;;;;;;21.35;13.63;;;-0.80;99.90;;;;;;5092518;28;20052;-71
2021/12/23 00:55:08;;;;;;;25.10;13.05;;;-0.80;99.90;;;;;;5090186;28;20115;-72
2021/12/23 00:57:38;;;;;;;21.92;11.38;;;-0.80;99.90;;;;;;5074526;28;20101;-71
2021/12/23 01:00:07;;;;;;;16.70;10.05;;;-0.80;99.90;;;;;;5072897;28;20357;-71
2021/12/23 01:02:33;;;;;;;16.77;10.75;;;-0.80;99.90;;;;;;5090157;28;20475;-73
2021/12/23 01:04:59;;;;;;;26.40;13.80;;;0.00;99.90;;;;;;5089730;28;20048;-72
2021/12/23 01:07:26;;;;;;;21.80;12.35;;;-0.80;99.90;;;;;;5089028;28;20040;-74
2021/12/23 01:09:52;;;;;;;21.70;12.43;;;0.00;99.90;;;;;;5084591;28;20047;-73
2021/12/23 01:12:23;;;;;;;23.60;12.27;;;-0.70;99.90;;;;;;5091629;28;20601;-71
2021/12/23 01:14:59;;;;;;;18.08;12.07;;;-0.70;99.90;;;;;;5107700;28;20052;-71
2021/12/23 01:19:54;;;;;;;20.85;12.50;;;-0.60;99.90;;;;;;5074188;28;20071;-71
2021/12/23 01:22:20;;;;;;;19.33;11.40;;;-0.60;99.90;;;;;;5091740;28;20047;-73
2021/12/23 01:24:47;;;;;;;19.02;11.60;;;-0.60;99.90;;;;;;5088482;28;20044;-73
2021/12/23 01:27:13;;;;;;;22.50;12.77;;;-0.60;99.90;;;;;;5090350;28;20039;-74
2021/12/23 01:29:39;;;;;;;20.70;13.18;;;0.70;99.90;;;;;;5089615;28;20051;-73
2021/12/23 01:32:06;;;;;;;20.27;12.65;;;-0.60;99.90;;;;;;5093344;28;20115;-73
2021/12/23 01:34:34;;;;;;;24.30;13.60;;;-0.60;99.90;;;;;;5088251;28;20043;-71
2021/12/23 01:37:04;;;;;;;21.80;12.80;;;-0.60;99.90;;;;;;5088541;28;20119;-74
2021/12/23 01:39:30;;;;;;;18.38;11.60;;;-0.60;99.90;;;;;;5087287;28;20487;-71
2021/12/23 01:41:56;;;;;;;23.30;12.57;;;-0.60;99.90;;;;;;5090143;28;20059;-72
2021/12/23 01:44:22;;;;;;;23.48;14.55;;;-0.10;99.90;;;;;;5087206;28;20036;-70
2021/12/23 01:46:48;;;;;;;22.08;14.27;;;-0.60;99.90;;;;;;5090743;28;20407;-70
2021/12/23 01:49:14;;;;;;;17.83;10.10;;;-0.60;99.90;;;;;;5086800;28;20482;-71
2021/12/23 01:51:40;;;;;;;15.60;10.52;;;-0.50;99.90;;;;;;5090687;28;20040;-70
2021/12/23 01:54:05;;;;;;;20.05;11.65;;;-0.20;99.90;;;;;;5085190;28;20545;-73
2021/12/23 01:56:31;;;;;;;18.65;10.82;;;-0.60;99.90;;;;;;5091398;28;20040;-71
2021/12/23 01:58:57;;;;;;;16.25;9.13;;;-0.60;99.90;;;;;;5091625;28;20047;-73
2021/12/23 02:01:23;;;;;;;14.05;8.48;;;-0.60;99.90;;;;;;5075899;28;20105;-73
2021/12/23 02:03:49;;;;;;;18.77;10.40;;;-0.60;99.90;;;;;;5089446;28;20472;-73
2021/12/23 02:06:15;;;;;;;19.67;12.13;;;-0.60;99.90;;;;;;5090625;28;20076;-72
2021/12/23 02:08:43;;;;;;;16.10;9.15;;;-0.60;99.90;;;;;;5091275;28;20087;-74
2021/12/23 02:11:11;;;;;;;17.48;10.07;;;-0.60;99.90;;;;;;5090101;28;20040;-72
2021/12/23 02:13:37;;;;;;;12.75;8.35;;;-0.60;99.90;;;;;;5090690;28;20047;-72
2021/12/23 02:16:04;;;;;;;15.60;9.73;;;-0.50;99.90;;;;;;5090234;28;20455;-74
2021/12/23 02:18:31;;;;;;;11.63;7.47;;;-0.50;99.90;;;;;;5089638;28;20044;-73
2021/12/23 02:20:57;;;;;;;15.98;10.27;;;-0.50;99.90;;;;;;5086153;28;20059;-74
2021/12/23 02:23:24;;;;;;;23.20;14.23;;;-0.50;99.90;;;;;;5078781;28;20040;-70
2021/12/23 02:25:50;;;;;;;23.45;14.20;;;-0.40;99.90;;;;;;5083315;28;20438;-74
2021/12/23 02:28:20;;;;;;;24.85;14.30;;;-0.30;99.90;;;;;;5087357;28;20068;-73
2021/12/23 02:30:51;;;;;;;22.08;13.82;;;-0.30;99.90;;;;;;5089085;28;20031;-69
2021/12/23 02:33:18;;;;;;;21.92;13.23;;;-0.30;99.90;;;;;;5091396;28;20036;-72
2021/12/23 02:35:44;;;;;;;21.63;11.57;;;-0.20;99.90;;;;;;5090424;28;20162;-71
2021/12/23 02:38:10;;;;;;;21.92;12.70;;;-0.30;99.90;;;;;;5091411;28;20123;-72
2021/12/23 02:40:41;;;;;;;18.48;11.27;;;-0.20;99.90;;;;;;5089553;28;20427;-69
2021/12/23 02:43:13;;;;;;;20.00;11.65;;;0.70;99.90;;;;;;5086716;28;20036;-73
2021/12/23 02:45:40;;;;;;;25.35;15.05;;;0.50;99.90;;;;;;5090832;28;20044;-70
2021/12/23 02:48:14;;;;;;;23.25;13.27;;;-0.20;99.90;;;;;;5090457;28;20048;-72
2021/12/23 02:50:43;;;;;;;20.63;13.15;;;-0.20;99.90;;;;;;5080149;28;20044;-69
2021/12/23 02:53:09;;;;;;;23.48;12.65;;;-0.10;99.90;;;;;;5083227;28;20040;-69
2021/12/23 02:55:36;;;;;;;16.77;10.07;;;-0.10;99.90;;;;;;5089453;28;20054;-72
2021/12/23 02:58:02;;;;;;;22.35;12.80;;;-0.10;99.90;;;;;;5087182;28;21591;-72
2021/12/23 03:00:29;;;;;;;24.55;15.02;;;1.10;99.90;;;;;;5082760;28;20040;-71
2021/12/23 03:02:55;;;;;;;24.75;13.93;;;-0.20;99.90;;;;;;5089697;28;20484;-70
2021/12/23 03:05:21;;;;;;;21.63;12.93;;;-0.20;99.90;;;;;;5088896;28;20056;-73
2021/12/23 03:07:47;;;;;;;20.05;12.80;;;-0.20;99.90;;;;;;5086845;28;20067;-71
2021/12/23 03:10:13;;;;;;;21.70;12.85;;;-0.20;99.90;;;;;;5090135;28;20111;-71
2021/12/23 03:12:38;;;;;;;20.60;12.35;;;-0.30;99.90;;;;;;5086627;28;20748;-70
2021/12/23 03:15:05;;;;;;;22.65;13.02;;;0.00;99.90;;;;;;5087728;28;20051;-72
2021/12/23 03:17:31;;;;;;;19.25;11.75;;;-0.30;99.90;;;;;;5089603;28;20044;-69
2021/12/23 03:19:57;;;;;;;21.38;12.60;;;-0.30;99.90;;;;;;5088522;28;20044;-72
2021/12/23 03:22:22;;;;;;;20.00;10.88;;;-0.30;99.90;;;;;;5085721;28;20535;-71
2021/12/23 03:24:48;;;;;;;18.48;11.32;;;-0.30;99.90;;;;;;5082479;28;20458;-72
2021/12/23 03:27:14;;;;;;;21.02;11.85;;;-0.30;99.90;;;;;;5073776;28;20040;-72
2021/12/23 03:29:40;;;;;;;19.05;11.80;;;0.10;99.90;;;;;;5088655;28;20468;-72
2021/12/23 03:32:06;;;;;;;17.02;9.50;;;0.50;99.90;;;;;;5088037;28;20044;-70
2021/12/23 03:34:32;;;;;;;20.55;12.70;;;-0.20;99.90;;;;;;5085464;28;20032;-72
2021/12/23 03:36:58;;;;;;;17.30;11.07;;;-0.20;99.90;;;;;;5087520;28;20036;-70
2021/12/23 03:39:24;;;;;;;20.73;11.48;;;-0.20;99.90;;;;;;5089234;28;20063;-69
2021/12/23 03:41:50;;;;;;;17.52;10.20;;;-0.10;99.90;;;;;;5087999;28;20040;-72
2021/12/23 03:44:16;;;;;;;15.05;8.63;;;-0.10;99.90;;;;;;5087513;28;20704;-72
2021/12/23 03:46:42;;;;;;;18.17;12.07;;;-0.10;99.90;;;;;;5087940;28;20109;-72
2021/12/23 03:49:08;;;;;;;20.08;12.52;;;-0.10;99.90;;;;;;5064366;28;20036;-70
2021/12/23 03:51:35;;;;;;;19.63;11.85;;;-0.10;99.90;;;;;;5087576;28;20442;-72
2021/12/23 03:54:02;;;;;;;20.23;11.73;;;-0.10;99.90;;;;;;5069780;28;20394;-72
2021/12/23 03:56:28;;;;;;;22.92;13.73;;;0.00;99.90;;;;;;5088885;28;20036;-71
2021/12/23 03:58:56;;;;;;;18.92;12.32;;;-0.10;99.90;;;;;;5068916;28;20400;-72
2021/12/23 04:01:24;;;;;;;21.38;12.23;;;-0.10;99.90;;;;;;5086088;28;20127;-72
2021/12/23 04:03:51;;;;;;;16.80;10.80;;;0.00;99.90;;;;;;5085444;28;20067;-70
2021/12/23 04:06:18;;;;;;;16.85;10.98;;;0.00;99.90;;;;;;5084107;28;20052;-71
2021/12/23 04:08:43;;;;;;;16.73;9.70;;;0.00;99.90;;;;;;5083728;28;20031;-73
2021/12/23 04:11:09;;;;;;;20.10;11.68;;;0.00;99.90;;;;;;5078705;28;20488;-71
2021/12/23 04:13:35;;;;;;;22.98;12.60;;;0.00;99.90;;;;;;5082744;28;20058;-72
2021/12/23 04:16:01;;;;;;;19.98;12.18;;;0.00;99.90;;;;;;5080332;28;20055;-73
2021/12/23 04:18:26;;;;;;;21.40;12.68;;;0.00;99.90;;;;;;5078378;28;20151;-72
2021/12/23 04:20:55;;;;;;;20.73;12.05;;;0.10;99.90;;;;;;5081857;28;20040;-72
2021/12/23 04:23:26;;;;;;;19.88;12.30;;;0.10;99.90;;;;;;5083287;28;20044;-74
2021/12/23 04:25:53;;;;;;;22.55;13.35;;;0.10;99.90;;;;;;5084258;28;20036;-74
2021/12/23 04:28:20;;;;;;;23.65;12.18;;;0.10;99.90;;;;;;5081220;28;20047;-73
2021/12/23 04:30:45;;;;;;;20.02;12.48;;;1.10;99.90;;;;;;5087363;28;20032;-72
2021/12/23 04:33:11;;;;;;;18.75;12.13;;;0.10;99.90;;;;;;5086795;28;20488;-72
2021/12/23 04:35:37;;;;;;;18.88;12.20;;;0.10;99.90;;;;;;5084027;28;20039;-73
2021/12/23 04:38:03;;;;;;;23.15;12.23;;;0.80;99.90;;;;;;5067315;28;20039;-72
2021/12/23 04:40:34;;;;;;;19.15;11.07;;;0.10;99.90;;;;;;5084736;28;20038;-73
2021/12/23 04:43:06;;;;;;;19.13;12.68;;;0.10;99.90;;;;;;5085020;28;20048;-72
2021/12/23 04:45:33;;;;;;;20.95;12.80;;;0.10;99.90;;;;;;5079887;28;20036;-73
2021/12/23 04:47:59;;;;;;;21.40;13.73;;;0.10;99.90;;;;;;5084682;28;20048;-73
2021/12/23 04:50:24;;;;;;;16.27;10.60;;;0.40;99.90;;;;;;5086641;28;20045;-73
2021/12/23 04:52:51;;;;;;;21.40;12.32;;;0.10;99.90;;;;;;5071906;28;20032;-72
2021/12/23 04:55:18;;;;;;;19.10;11.70;;;0.10;99.90;;;;;;5090474;28;20055;-74
2021/12/23 04:57:44;;;;;;;19.95;12.07;;;0.10;99.90;;;;;;5089820;28;20042;-73
2021/12/23 05:00:16;;;;;;;23.90;11.50;;;0.10;99.90;;;;;;5092384;28;20040;-74
2021/12/23 05:02:42;;;;;;;22.52;13.40;;;0.10;99.90;;;;;;5088248;28;20052;-73
2021/12/23 05:05:09;;;;;;;22.08;12.20;;;0.10;99.90;;;;;;5086178;28;20055;-72
2021/12/23 05:07:35;;;;;;;24.20;12.73;;;-0.20;99.90;;;;;;5084439;28;20086;-73
2021/12/23 05:10:00;;;;;;;24.80;13.05;;;0.60;99.90;;;;;;5083884;28;20360;-72
2021/12/23 05:12:26;;;;;;;25.50;12.95;;;0.10;99.90;;;;;;5083003;28;20086;-73
2021/12/23 05:14:52;;;;;;;22.63;12.82;;;0.30;99.90;;;;;;5089785;28;20093;-71
2021/12/23 05:17:17;;;;;;;20.50;12.02;;;0.10;99.90;;;;;;5089763;28;20031;-73
2021/12/23 05:19:43;;;;;;;20.95;12.20;;;0.10;99.90;;;;;;5081359;28;20040;-69
2021/12/23 05:22:09;;;;;;;22.83;13.27;;;0.20;99.90;;;;;;5091308;28;20036;-71
2021/12/23 05:24:34;;;;;;;19.38;12.27;;;0.00;99.90;;;;;;5092234;28;20040;-73
2021/12/23 05:27:00;;;;;;;21.08;13.05;;;0.10;99.90;;;;;;5094014;28;20051;-71
2021/12/23 05:29:26;;;;;;;21.88;13.40;;;0.10;99.90;;;;;;5082932;28;20324;-74
2021/12/23 05:31:52;;;;;;;21.63;12.82;;;0.20;99.90;;;;;;5078683;28;20047;-73
2021/12/23 05:34:18;;;;;;;20.08;12.43;;;0.10;99.90;;;;;;5084187;28;20048;-72
2021/12/23 05:36:43;;;;;;;23.33;12.52;;;0.20;99.90;;;;;;5081085;28;20056;-73
2021/12/23 05:39:12;;;;;;;26.90;13.43;;;0.80;99.90;;;;;;5084635;28;20094;-69
2021/12/23 05:41:38;;;;;;;23.33;12.73;;;0.40;99.90;;;;;;5068484;28;20991;-71
2021/12/23 05:44:04;;;;;;;17.58;10.10;;;0.90;99.90;;;;;;5084132;28;20041;-74
2021/12/23 05:46:30;;;;;;;19.92;12.27;;;0.20;99.90;;;;;;5080989;28;20730;-71
2021/12/23 05:48:56;;;;;;;20.17;11.98;;;0.50;99.90;;;;;;5084741;28;20035;-72
2021/12/23 05:51:22;;;;;;;22.42;11.88;;;0.20;99.90;;;;;;5085837;28;20047;-72
2021/12/23 05:53:47;;;;;;;25.35;12.90;;;0.20;99.90;;;;;;5090304;28;20120;-71
2021/12/23 05:56:13;;;;;;;20.85;13.05;;;0.20;99.90;;;;;;5065947;28;20109;-74
2021/12/23 05:58:39;;;;;;;21.88;13.27;;;0.20;99.90;;;;;;5082630;28;20490;-71
2021/12/23 06:01:05;;;;;;;19.38;12.38;;;0.90;99.90;;;;;;5082330;28;20036;-71
2021/12/23 06:03:31;;;;;;;19.95;12.10;;;0.30;99.90;;;;;;5084051;28;20089;-71
2021/12/23 06:05:57;;;;;;;21.08;12.48;;;0.80;99.90;;;;;;5071189;28;20056;-70
2021/12/23 06:08:22;;;;;;;17.85;10.32;;;0.30;99.90;;;;;;5090669;28;20056;-71
2021/12/23 06:10:48;;;;;;;18.70;11.48;;;0.30;99.90;;;;;;5091390;28;20117;-70
2021/12/23 06:13:14;;;;;;;19.58;11.02;;;0.30;99.90;;;;;;5088944;28;20130;-71
2021/12/23 06:15:39;;;;;;;20.73;10.68;;;0.30;99.90;;;;;;5090783;28;20419;-72
2021/12/23 06:18:05;;;;;;;18.75;11.57;;;0.30;99.90;;;;;;5089708;28;20040;-73
2021/12/23 06:20:31;;;;;;;20.70;12.38;;;0.30;99.90;;;;;;5088765;28;20452;-72
2021/12/23 06:22:57;;;;;;;19.08;11.70;;;0.80;99.90;;;;;;5088427;28;20040;-72
2021/12/23 06:25:22;;;;;;;20.02;12.27;;;0.30;99.90;;;;;;5086405;28;20044;-73
2021/12/23 06:27:48;;;;;;;19.77;11.88;;;0.40;99.90;;;;;;5087069;28;20044;-72
2021/12/23 06:30:20;;;;;;;21.98;10.82;;;0.40;99.90;;;;;;5084994;28;20043;-72
2021/12/23 06:32:48;;;;;;;22.67;13.05;;;1.00;99.90;;;;;;5087876;28;20047;-72
2021/12/23 06:35:15;;;;;;;20.92;13.48;;;0.40;99.90;;;;;;5088806;28;20105;-71
2021/12/23 06:37:41;;;;;;;19.30;12.23;;;0.60;99.90;;;;;;5071910;28;20119;-72
2021/12/23 06:40:07;;;;;;;24.58;14.10;;;0.40;99.90;;;;;;5088728;28;20127;-72
2021/12/23 06:42:33;;;;;;;18.85;11.90;;;0.40;99.90;;;;;;5090459;28;20075;-71
2021/12/23 06:44:59;;;;;;;20.25;12.68;;;0.70;99.90;;;;;;5090774;28;20071;-71
2021/12/23 06:47:25;;;;;;;20.88;11.70;;;0.40;99.90;;;;;;5089838;28;20093;-71
2021/12/23 06:49:50;;;;;;;21.33;12.75;;;0.40;99.90;;;;;;5088161;28;20126;-71
2021/12/23 06:52:16;;;;;;;21.98;12.88;;;0.40;99.90;;;;;;5088407;28;20075;-71
2021/12/23 06:54:46;;;;;;;21.15;12.82;;;0.40;99.90;;;;;;5088606;28;20036;-71
2021/12/23 06:57:13;;;;;;;19.02;10.48;;;1.30;99.90;;;;;;5085704;28;20453;-71
2021/12/23 06:59:39;;;;;;;22.02;13.88;;;0.60;99.90;;;;;;5085811;28;20131;-71
2021/12/23 07:02:06;;;;;;;20.98;11.50;;;0.60;99.90;;;;;;5088371;28;20101;-73
2021/12/23 07:04:33;;;;;;;21.65;13.40;;;0.60;99.90;;;;;;5087777;28;20035;-72
2021/12/23 07:07:10;;;;;;;23.05;14.40;;;0.60;99.90;;;;;;5088272;28;20048;-71
2021/12/23 07:09:42;;;;;;;23.60;13.35;;;0.60;99.90;;;;;;5088628;28;20048;-71
2021/12/23 07:12:10;;;;;;;21.17;12.55;;;0.50;99.90;;;;;;5087677;28;20082;-72
2021/12/23 07:14:36;;;;;;;24.92;14.48;;;0.50;99.90;;;;;;5088380;28;20048;-72
2021/12/23 07:17:03;;;;;;;23.45;14.10;;;0.50;99.90;;;;;;5080427;28;20052;-70
2021/12/23 07:19:29;;;;;;;26.23;13.60;;;1.40;99.90;;;;;;5080312;28;20556;-72
2021/12/23 07:21:55;;;;;;;25.25;15.18;;;0.60;99.90;;;;;;5084776;28;20131;-71
2021/12/23 07:24:21;;;;;;;23.83;14.90;;;0.60;99.90;;;;;;5083711;28;20040;-72
2021/12/23 07:26:47;;;;;;;25.63;14.23;;;0.50;99.90;;;;;;5091197;28;20460;-70
2021/12/23 07:29:13;;;;;;;23.92;14.70;;;0.60;99.90;;;;;;5086842;28;20123;-70
2021/12/23 07:31:39;;;;;;;25.58;15.82;;;0.60;99.90;;;;;;5086128;28;20479;-71
2021/12/23 07:34:05;;;;;;;24.17;14.68;;;0.60;99.90;;;;;;5088219;28;20075;-73
2021/12/23 07:36:31;;;;;;;27.73;16.98;;;0.60;99.90;;;;;;5087538;28;20501;-72
2021/12/23 07:38:57;;;;;;;28.15;16.38;;;0.70;99.90;;;;;;5086789;28;20062;-72
2021/12/23 07:41:25;;;;;;;26.90;15.77;;;0.60;99.90;;;;;;5088274;28;20044;-71
2021/12/23 07:44:04;;;;;;;24.52;14.68;;;0.60;99.90;;;;;;5087864;28;20173;-73
2021/12/23 07:46:36;;;;;;;27.17;16.20;;;0.60;99.90;;;;;;5102428;28;20119;-71
2021/12/23 07:49:03;;;;;;;26.05;15.30;;;1.10;99.90;;;;;;5089358;28;20061;-73
2021/12/23 07:51:29;;;;;;;29.80;17.20;;;0.60;99.90;;;;;;5090274;28;20044;-70
2021/12/23 07:53:55;;;;;;;32.40;18.77;;;0.60;99.90;;;;;;5091669;28;20058;-69
2021/12/23 07:56:22;;;;;;;32.15;17.40;;;0.60;99.90;;;;;;5069277;28;20047;-71
2021/12/23 07:58:48;;;;;;;30.65;17.52;;;1.30;99.90;;;;;;5069674;28;20497;-71
2021/12/23 08:01:14;;;;;;;27.70;17.08;;;0.60;99.90;;;;;;5087548;28;20068;-72
2021/12/23 08:03:39;;;;;;;30.88;17.15;;;0.60;99.90;;;;;;5072419;28;20066;-73
2021/12/23 08:06:05;;;;;;;29.92;16.85;;;0.60;99.90;;;;;;5085111;28;20052;-73
2021/12/23 08:08:31;;;;;;;28.27;16.92;;;1.10;99.90;;;;;;5089777;28;20044;-70
2021/12/23 08:10:57;;;;;;;29.35;17.23;;;0.60;99.90;;;;;;5089842;28;20072;-72
2021/12/23 08:13:23;;;;;;;31.02;17.38;;;0.60;99.90;;;;;;5088584;28;20054;-69
2021/12/23 08:15:48;;;;;;;32.75;18.27;;;0.60;99.90;;;;;;5075728;28;20040;-70
2021/12/23 08:18:14;;;;;;;25.98;16.42;;;0.60;99.90;;;;;;5109603;28;20031;-71
2021/12/23 08:20:40;;;;;;;29.77;16.75;;;1.30;99.90;;;;;;5080311;28;20044;-72
2021/12/23 08:23:06;;;;;;;29.15;18.23;;;0.60;99.90;;;;;;5075789;28;20106;-71
2021/12/23 08:25:32;;;;;;;32.40;18.85;;;1.40;99.90;;;;;;5093253;28;20048;-70
2021/12/23 08:27:57;;;;;;;32.00;16.98;;;0.70;99.90;;;;;;5092759;28;20415;-72
2021/12/23 08:30:23;;;;;;;32.78;19.05;;;0.60;99.90;;;;;;5093777;28;20044;-72
2021/12/23 08:32:50;;;;;;;28.42;17.13;;;0.50;99.90;;;;;;5093462;28;20104;-70
2021/12/23 08:35:17;;;;;;;31.35;18.63;;;0.50;99.90;;;;;;5087688;28;20159;-71
2021/12/23 08:37:45;;;;;;;31.13;17.73;;;1.10;99.90;;;;;;5091912;28;20122;-70
2021/12/23 08:40:16;;;;;;;27.90;16.65;;;0.60;99.90;;;;;;5091768;28;20048;-70
2021/12/23 08:42:42;;;;;;;29.27;17.30;;;0.60;99.90;;;;;;5084309;28;20044;-70
2021/12/23 08:45:08;;;;;;;35.03;18.73;;;1.30;99.90;;;;;;5076831;28;20050;-71
2021/12/23 08:47:36;;;;;;;28.50;16.20;;;0.50;99.90;;;;;;5086438;28;20040;-69
2021/12/23 08:50:04;;;;;;;36.60;19.85;;;1.00;99.90;;;;;;5090775;28;20047;-69
2021/12/23 08:52:29;;;;;;;28.77;16.83;;;0.50;99.90;;;;;;5084543;28;20048;-72
2021/12/23 08:54:55;;;;;;;30.15;16.88;;;0.40;99.90;;;;;;5087992;28;20602;-70
2021/12/23 08:57:21;;;;;;;29.60;18.00;;;0.50;99.90;;;;;;5088466;28;20433;-70
2021/12/23 08:59:47;;;;;;;28.85;16.67;;;0.40;99.90;;;;;;5080234;28;20044;-71
2021/12/23 09:02:14;;;;;;;28.70;18.52;;;0.40;99.90;;;;;;5074251;28;20069;-70
2021/12/23 09:04:41;;;;;;;31.58;16.85;;;0.40;99.90;;;;;;5090196;28;20043;-71
2021/12/23 09:07:08;;;;;;;31.05;17.65;;;0.50;99.90;;;;;;5090965;28;20079;-71
2021/12/23 09:09:35;;;;;;;30.95;17.35;;;0.50;99.90;;;;;;5091586;28;20456;-71
2021/12/23 09:12:03;;;;;;;30.85;18.58;;;0.50;99.90;;;;;;5088110;28;20123;-70
2021/12/23 09:14:29;;;;;;;29.50;16.02;;;0.40;99.90;;;;;;5093266;28;20182;-70
2021/12/23 09:16:55;;;;;;;27.65;16.13;;;0.50;99.90;;;;;;5074753;28;20119;-71
2021/12/23 09:19:21;;;;;;;26.75;16.63;;;0.50;99.90;;;;;;5091516;28;20130;-70
2021/12/23 09:21:46;;;;;;;33.30;16.58;;;0.40;99.90;;;;;;5089100;28;20510;-71
2021/12/23 09:24:12;;;;;;;26.67;16.45;;;0.80;99.90;;;;;;5092969;28;20044;-69
2021/12/23 09:26:49;;;;;;;32.88;18.33;;;0.50;99.90;;;;;;5087162;28;20048;-70
2021/12/23 09:32:39;;;;;;;29.45;18.13;;;0.60;99.90;;;;;;5078947;28;20133;-69
2021/12/23 09:34:46;;;;;;;38.28;17.17;;;0.50;99.90;;;;;;5085122;28;20063;-70
2021/12/23 09:37:11;;;;;;;32.83;18.40;;;0.60;99.90;;;;;;5082963;28;20043;-70
2021/12/23 09:39:37;;;;;;;32.08;17.95;;;0.50;99.90;;;;;;5087947;28;20051;-70
2021/12/23 09:42:04;;;;;;;29.02;17.52;;;0.60;99.90;;;;;;5082074;28;20122;-71
2021/12/23 09:44:31;;;;;;;26.98;16.67;;;0.60;99.90;;;;;;5090830;28;20044;-69
2021/12/23 09:47:02;;;;;;;32.88;18.52;;;0.60;99.90;;;;;;5090429;28;20040;-69
2021/12/23 09:49:29;;;;;;;34.50;18.98;;;0.60;99.90;;;;;;5090165;28;20036;-70
2021/12/23 09:51:56;;;;;;;32.85;19.55;;;0.50;99.90;;;;;;5091674;28;20129;-69
2021/12/23 09:54:26;;;;;;;36.33;19.33;;;0.50;99.90;;;;;;5088800;28;20048;-71
2021/12/23 09:56:53;;;;;;;34.75;20.25;;;0.60;99.90;;;;;;5090830;28;20043;-71
2021/12/23 09:59:21;;;;;;;33.30;18.90;;;1.10;99.90;;;;;;5090743;28;20040;-72
2021/12/23 10:01:47;;;;;;;34.83;19.70;;;0.60;99.90;;;;;;5090771;28;20044;-70
2021/12/23 10:04:13;;;;;;;36.15;20.02;;;0.60;99.90;;;;;;5092159;28;20105;-70
2021/12/23 10:06:39;;;;;;;36.75;19.52;;;0.60;99.90;;;;;;5090685;28;20056;-70
2021/12/23 10:09:05;;;;;;;43.97;20.38;;;0.60;99.90;;;;;;5073684;28;20046;-70
2021/12/23 10:11:51;;;;;;;41.03;23.13;;;0.60;99.90;;;;;;5090549;28;20483;-70
2021/12/23 10:30:56;;;;;;;50.25;24.95;;;0.80;99.90;;;;;;5090083;28;20048;-72
2021/12/23 10:38:50;;;;;;;45.25;24.30;;;1.70;99.90;;;;;;5088346;28;20130;-72
2021/12/23 10:41:18;;;;;;;54.42;26.10;;;0.90;99.90;;;;;;5089295;28;20710;-72
2021/12/23 10:43:57;;;;;;;47.88;24.85;;;0.90;99.90;;;;;;5089134;28;20436;-72
2021/12/23 10:46:45;;;;;;;52.50;24.52;;;0.90;99.90;;;;;;5089482;28;20043;-72
2021/12/23 10:52:10;;;;;;;58.50;26.08;;;0.90;99.90;;;;;;5088835;28;20090;-73
2021/12/23 11:00:59;;;;;;;55.90;26.45;;;1.10;99.90;;;;;;5048989;28;20052;-71
2021/12/23 11:42:01;;;;;;;57.83;26.58;;;1.60;99.90;;;;;;5079280;28;20056;-73
2021/12/23 11:44:31;;;;;;;57.15;26.35;;;1.90;99.90;;;;;;5092806;28;20070;-73
2021/12/23 11:47:02;;;;;;;59.80;25.95;;;1.50;99.90;;;;;;5077861;28;20032;-71
2021/12/23 11:49:29;;;;;;;58.60;27.90;;;1.40;99.90;;;;;;5079728;28;20452;-74
2021/12/23 11:51:55;;;;;;;74.65;34.17;;;1.50;99.90;;;;;;5079616;28;20147;-73
2021/12/23 11:54:29;;;;;;;66.00;30.63;;;1.50;99.90;;;;;;5079832;28;20495;-72
2021/12/23 11:57:08;;;;;;;55.67;26.58;;;1.70;99.90;;;;;;5078803;28;20103;-72
2021/12/23 11:59:37;;;;;;;63.58;28.67;;;1.50;99.90;;;;;;5096484;28;20058;-73
2021/12/23 12:02:19;;;;;;;68.15;31.60;;;1.50;99.90;;;;;;5059225;28;20663;-72
2021/12/23 12:04:46;;;;;;;65.72;28.52;;;1.70;99.90;;;;;;5073913;28;20044;-74
2021/12/23 12:07:16;;;;;;;65.72;29.58;;;1.40;99.90;;;;;;5064775;28;20105;-72
2021/12/23 12:10:08;;;;;;;55.88;26.95;;;2.40;99.90;;;;;;5076660;28;20063;-72
2021/12/23 12:12:54;;;;;;;57.13;26.95;;;1.40;99.90;;;;;;5080557;28;20040;-73
2021/12/23 12:15:37;;;;;;;51.85;26.85;;;1.80;99.90;;;;;;5081389;28;20136;-72
2021/12/23 12:18:09;;;;;;;49.33;24.02;;;1.80;99.90;;;;;;5064507;28;20165;-72
2021/12/23 12:20:42;;;;;;;59.67;28.38;;;1.50;99.90;;;;;;5080839;28;20051;-72
2021/12/23 12:23:13;;;;;;;54.83;25.35;;;1.60;99.90;;;;;;5081119;28;20477;-72
2021/12/23 12:25:40;;;;;;;60.47;27.85;;;1.90;99.90;;;;;;5081527;28;20074;-72
2021/12/23 12:28:06;;;;;;;55.67;26.20;;;2.10;99.90;;;;;;5084181;28;20043;-72
2021/12/23 12:30:40;;;;;;;66.70;29.67;;;2.00;99.90;;;;;;5072087;28;20502;-72
2021/12/23 12:33:10;;;;;;;60.17;25.80;;;1.70;99.90;;;;;;5091116;28;20046;-73
2021/12/23 12:35:36;;;;;;;68.03;30.35;;;1.80;99.90;;;;;;5081585;28;20732;-72
2021/12/23 12:38:22;;;;;;;51.75;26.23;;;2.00;99.90;;;;;;5079776;28;20048;-72
2021/12/23 12:41:03;;;;;;;55.38;25.92;;;1.60;99.90;;;;;;5080787;28;20082;-72
2021/12/23 12:43:46;;;;;;;53.83;25.67;;;2.00;99.90;;;;;;5069757;28;20083;-73
2021/12/23 12:46:15;;;;;;;56.15;27.73;;;1.90;99.90;;;;;;5064187;28;20048;-73
2021/12/23 12:49:01;;;;;;;58.30;27.25;;;1.70;99.90;;;;;;5079823;28;20443;-72
2021/12/23 12:51:37;;;;;;;;;;;1.60;99.90;;;;;;5080991;28;20427;-73
2021/12/23 12:54:09;;;;;;;65.30;27.90;;;2.60;99.90;;;;;;5082169;28;19920;-73
2021/12/23 12:56:43;;;;;;;56.88;28.05;;;1.90;99.90;;;;;;5080751;28;20044;-72
2021/12/23 12:59:10;;;;;;;54.95;26.83;;;2.10;99.90;;;;;;5073343;28;20387;-73
2021/12/23 13:01:42;;;;;;;54.08;27.00;;;1.70;99.90;;;;;;5078473;28;20046;-73
2021/12/23 13:04:30;;;;;;;62.80;27.45;;;2.10;99.90;;;;;;5084084;28;20060;-73
2021/12/23 13:06:59;;;;;;;60.28;28.00;;;2.10;99.90;;;;;;5082812;28;20071;-72
2021/12/23 13:09:36;;;;;;;56.70;28.48;;;1.60;99.90;;;;;;5089532;28;20063;-72
2021/12/23 13:12:04;;;;;;;57.83;26.10;;;2.10;99.90;;;;;;5057992;28;20180;-72
2021/12/23 13:15:15;;;;;;;50.92;26.50;;;2.10;99.90;;;;;;5083584;28;20763;-72
2021/12/23 13:17:48;;;;;;;54.10;25.17;;;1.70;99.90;;;;;;5070412;28;20059;-72
2021/12/23 13:20:42;;;;;;;61.00;26.85;;;2.20;99.90;;;;;;5023763;28;20115;-73
2021/12/23 13:23:20;;;;;;;61.40;29.25;;;1.80;99.90;;;;;;5023854;28;20093;-74
2021/12/23 13:25:48;;;;;;;59.55;27.25;;;2.00;99.90;;;;;;5027084;28;20119;-74
2021/12/23 13:28:45;;;;;;;49.70;25.30;;;1.90;99.90;;;;;;5033699;28;20045;-74
2021/12/23 13:31:27;;;;;;;47.58;24.48;;;2.20;99.90;;;;;;5029131;28;20053;-73
2021/12/23 13:34:01;;;;;;;51.28;25.38;;;1.70;99.90;;;;;;5048357;28;20431;-73
2021/12/23 13:36:37;;;;;;;56.20;27.15;;;2.20;99.90;;;;;;5039346;28;20382;-73
2021/12/23 13:39:12;;;;;;;63.35;29.65;;;1.80;99.90;;;;;;5029342;28;20120;-73
2021/12/23 13:41:47;;;;;;;56.97;27.55;;;2.00;99.90;;;;;;5032720;28;20045;-73
2021/12/23 13:44:28;;;;;;;61.78;27.00;;;2.70;99.90;;;;;;5048301;28;21386;-73
2021/12/23 13:47:03;;;;;;;50.22;26.20;;;1.80;99.90;;;;;;5029062;28;20033;-73
2021/12/23 13:49:48;;;;;;;;;;;2.20;99.90;;;;;;5030937;28;20040;-73
2021/12/23 13:52:38;;;;;;;51.03;24.00;;;1.90;99.90;;;;;;5040362;28;19928;-73
2021/12/23 13:55:10;;;;;;;51.83;25.02;;;2.20;99.90;;;;;;5023037;28;20045;-73
2021/12/23 13:57:40;;;;;;;53.53;24.90;;;2.10;99.90;;;;;;5025137;28;20400;-73
2021/12/23 14:00:16;;;;;;;60.13;27.27;;;2.10;99.90;;;;;;4143550;28;10000966;-73
2021/12/23 14:02:42;;;;;;;50.78;25.33;;;1.80;99.90;;;;;;5052506;28;20116;-73
2021/12/23 14:05:10;;;;;;;49.65;25.73;;;2.30;99.90;;;;;;5067072;22;20053;-85